sensor_id;sensor_type;location;lat;lon;timestamp;pressure;altitude;pressure_sealevel;temperature;humidity
57600;BME280;43426;43.594;24.334;2023-07-28T00:00:13;101096.28;;;14.48;86.03
57600;BME280;43426;43.594;24.334;2023-07-28T00:02:38;101098.06;;;14.41;86.06
57600;BME280;43426;43.594;24.334;2023-07-28T00:05:04;101104.31;;;14.42;85.96
57600;BME280;43426;43.594;24.334;2023-07-28T00:07:29;101108.34;;;14.31;85.67
57600;BME280;43426;43.594;24.334;2023-07-28T00:09:55;101105.44;;;14.33;85.46
57600;BME280;43426;43.594;24.334;2023-07-28T00:12:20;101106.66;;;14.30;85.66
57600;BME280;43426;43.594;24.334;2023-07-28T00:14:46;101111.63;;;14.26;86.33
57600;BME280;43426;43.594;24.334;2023-07-28T00:17:12;101120.50;;;14.05;87.47
57600;BME280;43426;43.594;24.334;2023-07-28T00:19:37;101111.72;;;14.33;84.94
57600;BME280;43426;43.594;24.334;2023-07-28T00:22:02;101105.91;;;14.21;85.23
57600;BME280;43426;43.594;24.334;2023-07-28T00:24:30;101104.78;;;14.16;85.57
57600;BME280;43426;43.594;24.334;2023-07-28T00:26:55;101105.34;;;14.11;85.89
57600;BME280;43426;43.594;24.334;2023-07-28T00:29:20;101105.50;;;14.09;86.73
57600;BME280;43426;43.594;24.334;2023-07-28T00:31:45;101096.94;;;14.21;86.83
57600;BME280;43426;43.594;24.334;2023-07-28T00:34:11;101102.81;;;14.24;86.74
57600;BME280;43426;43.594;24.334;2023-07-28T00:36:36;101098.97;;;14.19;87.39
57600;BME280;43426;43.594;24.334;2023-07-28T00:39:04;101106.66;;;14.30;86.65
57600;BME280;43426;43.594;24.334;2023-07-28T00:41:29;101098.78;;;14.20;86.37
57600;BME280;43426;43.594;24.334;2023-07-28T00:43:54;101111.91;;;14.17;86.25
57600;BME280;43426;43.594;24.334;2023-07-28T00:46:20;101103.84;;;14.08;86.83
57600;BME280;43426;43.594;24.334;2023-07-28T00:48:45;101096.63;;;14.01;88.08
57600;BME280;43426;43.594;24.334;2023-07-28T00:51:11;101100.34;;;13.85;89.40
57600;BME280;43426;43.594;24.334;2023-07-28T00:53:36;101097.25;;;13.88;89.59
57600;BME280;43426;43.594;24.334;2023-07-28T00:56:02;101100.25;;;13.93;89.39
57600;BME280;43426;43.594;24.334;2023-07-28T00:58:27;101105.47;;;13.79;90.49
57600;BME280;43426;43.594;24.334;2023-07-28T01:00:53;101106.28;;;13.80;90.02
57600;BME280;43426;43.594;24.334;2023-07-28T01:03:18;101105.66;;;13.78;90.09
57600;BME280;43426;43.594;24.334;2023-07-28T01:09:02;101107.41;;;13.71;89.53
57600;BME280;43426;43.594;24.334;2023-07-28T01:11:20;101092.06;;;13.63;89.65
57600;BME280;43426;43.594;24.334;2023-07-28T01:13:45;101087.06;;;13.52;90.59
57600;BME280;43426;43.594;24.334;2023-07-28T01:16:11;101096.81;;;13.61;90.27
57600;BME280;43426;43.594;24.334;2023-07-28T01:18:36;101098.31;;;13.63;89.55
57600;BME280;43426;43.594;24.334;2023-07-28T01:21:03;101100.38;;;13.61;89.05
57600;BME280;43426;43.594;24.334;2023-07-28T01:26:11;101112.84;;;13.48;89.38
57600;BME280;43426;43.594;24.334;2023-07-28T01:28:37;101108.13;;;13.41;90.29
57600;BME280;43426;43.594;24.334;2023-07-28T01:31:03;101108.59;;;13.22;92.03
57600;BME280;43426;43.594;24.334;2023-07-28T01:33:28;101108.75;;;13.20;92.58
57600;BME280;43426;43.594;24.334;2023-07-28T01:35:54;101109.78;;;13.19;92.72
57600;BME280;43426;43.594;24.334;2023-07-28T01:38:19;101113.16;;;13.21;91.93
57600;BME280;43426;43.594;24.334;2023-07-28T01:40:44;101116.53;;;13.23;91.40
57600;BME280;43426;43.594;24.334;2023-07-28T01:43:10;101110.16;;;13.16;91.66
57600;BME280;43426;43.594;24.334;2023-07-28T01:45:35;101112.72;;;13.09;92.36
57600;BME280;43426;43.594;24.334;2023-07-28T01:48:00;101113.44;;;13.03;92.76
57600;BME280;43426;43.594;24.334;2023-07-28T01:50:25;101110.00;;;13.09;93.01
57600;BME280;43426;43.594;24.334;2023-07-28T01:52:53;101104.63;;;13.01;93.15
57600;BME280;43426;43.594;24.334;2023-07-28T01:55:18;101107.06;;;12.96;93.29
57600;BME280;43426;43.594;24.334;2023-07-28T01:57:50;101101.59;;;13.04;93.48
57600;BME280;43426;43.594;24.334;2023-07-28T02:00:16;101105.31;;;13.03;93.84
57600;BME280;43426;43.594;24.334;2023-07-28T02:02:41;101102.06;;;13.08;93.46
57600;BME280;43426;43.594;24.334;2023-07-28T02:05:07;101108.34;;;13.08;92.77
57600;BME280;43426;43.594;24.334;2023-07-28T02:07:32;101114.78;;;13.07;92.70
57600;BME280;43426;43.594;24.334;2023-07-28T02:09:57;101118.69;;;13.05;92.70
57600;BME280;43426;43.594;24.334;2023-07-28T02:12:23;101114.06;;;13.14;92.76
57600;BME280;43426;43.594;24.334;2023-07-28T02:14:48;101115.28;;;13.03;93.29
57600;BME280;43426;43.594;24.334;2023-07-28T02:17:13;101120.25;;;12.99;94.14
57600;BME280;43426;43.594;24.334;2023-07-28T02:19:38;101117.19;;;13.02;93.92
57600;BME280;43426;43.594;24.334;2023-07-28T02:22:04;101123.88;;;13.15;94.23
57600;BME280;43426;43.594;24.334;2023-07-28T02:24:29;101125.06;;;13.12;93.88
57600;BME280;43426;43.594;24.334;2023-07-28T02:26:54;101134.06;;;13.13;93.10
57600;BME280;43426;43.594;24.334;2023-07-28T02:29:20;101127.78;;;13.12;91.15
57600;BME280;43426;43.594;24.334;2023-07-28T02:31:45;101127.34;;;13.00;90.21
57600;BME280;43426;43.594;24.334;2023-07-28T02:34:10;101131.31;;;12.89;90.90
57600;BME280;43426;43.594;24.334;2023-07-28T02:36:38;101133.72;;;12.76;92.41
57600;BME280;43426;43.594;24.334;2023-07-28T02:39:03;101130.19;;;12.75;93.37
57600;BME280;43426;43.594;24.334;2023-07-28T02:41:32;101137.66;;;12.65;93.64
57600;BME280;43426;43.594;24.334;2023-07-28T02:43:57;101132.56;;;12.70;94.31
57600;BME280;43426;43.594;24.334;2023-07-28T02:46:22;101136.44;;;12.76;94.21
57600;BME280;43426;43.594;24.334;2023-07-28T02:48:47;101137.00;;;12.63;94.29
57600;BME280;43426;43.594;24.334;2023-07-28T02:51:13;101129.00;;;12.78;93.81
57600;BME280;43426;43.594;24.334;2023-07-28T02:53:40;101140.31;;;12.73;93.83
57600;BME280;43426;43.594;24.334;2023-07-28T02:56:06;101143.81;;;12.51;94.42
57600;BME280;43426;43.594;24.334;2023-07-28T02:58:31;101140.44;;;12.40;94.76
57600;BME280;43426;43.594;24.334;2023-07-28T03:00:56;101150.97;;;12.27;95.37
57600;BME280;43426;43.594;24.334;2023-07-28T03:03:22;101142.16;;;12.33;96.23
57600;BME280;43426;43.594;24.334;2023-07-28T03:05:47;101153.50;;;12.29;96.81
57600;BME280;43426;43.594;24.334;2023-07-28T03:08:16;101151.16;;;12.25;97.45
57600;BME280;43426;43.594;24.334;2023-07-28T03:10:41;101155.69;;;12.33;97.20
57600;BME280;43426;43.594;24.334;2023-07-28T03:13:07;101153.31;;;12.38;97.30
57600;BME280;43426;43.594;24.334;2023-07-28T03:15:35;101152.94;;;12.50;97.09
57600;BME280;43426;43.594;24.334;2023-07-28T03:18:00;101154.28;;;12.54;97.21
57600;BME280;43426;43.594;24.334;2023-07-28T03:20:26;101153.28;;;12.47;97.39
57600;BME280;43426;43.594;24.334;2023-07-28T03:22:51;101161.75;;;12.52;97.55
57600;BME280;43426;43.594;24.334;2023-07-28T03:25:16;101161.88;;;12.58;96.34
57600;BME280;43426;43.594;24.334;2023-07-28T03:27:41;101158.00;;;12.53;95.63
57600;BME280;43426;43.594;24.334;2023-07-28T03:30:07;101155.78;;;12.56;94.86
57600;BME280;43426;43.594;24.334;2023-07-28T03:32:35;101156.16;;;12.45;95.39
57600;BME280;43426;43.594;24.334;2023-07-28T03:35:00;101158.91;;;12.37;96.06
57600;BME280;43426;43.594;24.334;2023-07-28T03:37:26;101164.97;;;12.31;96.87
57600;BME280;43426;43.594;24.334;2023-07-28T03:39:51;101167.38;;;12.34;97.43
57600;BME280;43426;43.594;24.334;2023-07-28T03:42:16;101166.50;;;12.33;98.02
57600;BME280;43426;43.594;24.334;2023-07-28T03:44:42;101167.09;;;12.68;97.44
57600;BME280;43426;43.594;24.334;2023-07-28T03:47:07;101158.31;;;12.66;97.53
57600;BME280;43426;43.594;24.334;2023-07-28T03:49:32;101159.63;;;12.70;98.15
57600;BME280;43426;43.594;24.334;2023-07-28T03:51:58;101164.19;;;12.78;98.12
57600;BME280;43426;43.594;24.334;2023-07-28T03:54:23;101164.63;;;12.90;98.11
57600;BME280;43426;43.594;24.334;2023-07-28T03:56:48;101165.28;;;13.00;98.27
57600;BME280;43426;43.594;24.334;2023-07-28T03:59:14;101161.63;;;13.16;96.88
57600;BME280;43426;43.594;24.334;2023-07-28T04:01:39;101170.72;;;13.23;97.10
57600;BME280;43426;43.594;24.334;2023-07-28T04:04:05;101177.16;;;13.31;97.29
57600;BME280;43426;43.594;24.334;2023-07-28T04:06:40;101179.59;;;13.49;96.74
57600;BME280;43426;43.594;24.334;2023-07-28T04:09:07;101174.66;;;13.52;96.46
57600;BME280;43426;43.594;24.334;2023-07-28T04:11:33;101174.34;;;13.70;94.97
57600;BME280;43426;43.594;24.334;2023-07-28T04:13:58;101174.91;;;13.89;94.38
57600;BME280;43426;43.594;24.334;2023-07-28T04:16:23;101179.97;;;13.92;94.44
57600;BME280;43426;43.594;24.334;2023-07-28T04:18:48;101173.81;;;14.13;93.78
57600;BME280;43426;43.594;24.334;2023-07-28T04:21:14;101180.13;;;14.28;93.19
57600;BME280;43426;43.594;24.334;2023-07-28T04:23:39;101177.66;;;14.57;93.17
57600;BME280;43426;43.594;24.334;2023-07-28T04:26:06;101191.72;;;14.90;90.53
57600;BME280;43426;43.594;24.334;2023-07-28T04:28:31;101192.25;;;15.01;89.15
57600;BME280;43426;43.594;24.334;2023-07-28T04:30:56;101189.97;;;15.34;88.25
57600;BME280;43426;43.594;24.334;2023-07-28T04:33:21;101195.00;;;15.59;87.62
57600;BME280;43426;43.594;24.334;2023-07-28T04:35:47;101198.88;;;15.86;85.72
57600;BME280;43426;43.594;24.334;2023-07-28T04:38:12;101203.13;;;16.17;83.93
57600;BME280;43426;43.594;24.334;2023-07-28T04:40:37;101202.25;;;16.38;82.27
57600;BME280;43426;43.594;24.334;2023-07-28T04:43:02;101201.63;;;16.71;80.87
57600;BME280;43426;43.594;24.334;2023-07-28T04:45:28;101201.25;;;16.74;81.03
57600;BME280;43426;43.594;24.334;2023-07-28T04:47:53;101206.47;;;17.11;78.99
57600;BME280;43426;43.594;24.334;2023-07-28T04:50:18;101198.28;;;17.11;78.39
57600;BME280;43426;43.594;24.334;2023-07-28T04:52:44;101194.81;;;17.37;77.60
57600;BME280;43426;43.594;24.334;2023-07-28T04:55:09;101188.16;;;17.60;77.15
57600;BME280;43426;43.594;24.334;2023-07-28T04:57:34;101185.50;;;17.86;76.30
57600;BME280;43426;43.594;24.334;2023-07-28T04:59:59;101189.09;;;18.20;72.98
57600;BME280;43426;43.594;24.334;2023-07-28T05:02:25;101177.50;;;18.45;71.68
57600;BME280;43426;43.594;24.334;2023-07-28T05:04:50;101184.41;;;18.68;70.52
57600;BME280;43426;43.594;24.334;2023-07-28T05:07:18;101193.81;;;18.79;68.90
57600;BME280;43426;43.594;24.334;2023-07-28T05:09:43;101189.16;;;18.99;68.33
57600;BME280;43426;43.594;24.334;2023-07-28T05:12:09;101192.66;;;19.20;68.18
57600;BME280;43426;43.594;24.334;2023-07-28T05:14:35;101197.16;;;19.46;66.91
57600;BME280;43426;43.594;24.334;2023-07-28T05:17:00;101198.28;;;19.70;64.18
57600;BME280;43426;43.594;24.334;2023-07-28T05:19:25;101197.38;;;19.83;62.87
57600;BME280;43426;43.594;24.334;2023-07-28T05:21:51;101191.91;;;19.83;63.34
57600;BME280;43426;43.594;24.334;2023-07-28T05:24:16;101196.06;;;19.93;64.25
57600;BME280;43426;43.594;24.334;2023-07-28T05:26:42;101195.00;;;20.19;62.63
57600;BME280;43426;43.594;24.334;2023-07-28T05:29:08;101191.00;;;20.40;61.82
57600;BME280;43426;43.594;24.334;2023-07-28T05:31:33;101193.13;;;20.63;61.40
57600;BME280;43426;43.594;24.334;2023-07-28T05:33:58;101191.75;;;20.72;61.27
57600;BME280;43426;43.594;24.334;2023-07-28T05:36:24;101192.91;;;20.83;60.23
57600;BME280;43426;43.594;24.334;2023-07-28T05:38:49;101190.03;;;20.97;58.82
57600;BME280;43426;43.594;24.334;2023-07-28T05:41:14;101187.19;;;21.03;58.07
57600;BME280;43426;43.594;24.334;2023-07-28T05:43:40;101179.72;;;21.11;59.04
57600;BME280;43426;43.594;24.334;2023-07-28T05:46:05;101180.28;;;21.31;58.33
57600;BME280;43426;43.594;24.334;2023-07-28T05:48:30;101183.06;;;21.43;58.89
57600;BME280;43426;43.594;24.334;2023-07-28T05:50:56;101180.66;;;21.53;57.41
57600;BME280;43426;43.594;24.334;2023-07-28T05:53:21;101176.28;;;21.64;57.38
57600;BME280;43426;43.594;24.334;2023-07-28T05:55:46;101178.44;;;21.74;56.87
57600;BME280;43426;43.594;24.334;2023-07-28T05:58:12;101167.22;;;21.75;55.44
57600;BME280;43426;43.594;24.334;2023-07-28T06:00:41;101165.28;;;21.76;56.98
57600;BME280;43426;43.594;24.334;2023-07-28T06:03:07;101162.56;;;21.76;55.24
57600;BME280;43426;43.594;24.334;2023-07-28T06:05:32;101171.75;;;21.70;54.73
57600;BME280;43426;43.594;24.334;2023-07-28T06:07:57;101176.75;;;21.73;56.25
57600;BME280;43426;43.594;24.334;2023-07-28T06:10:22;101178.13;;;21.94;55.60
57600;BME280;43426;43.594;24.334;2023-07-28T06:12:48;101174.22;;;22.25;54.71
57600;BME280;43426;43.594;24.334;2023-07-28T06:15:13;101168.25;;;22.64;55.57
57600;BME280;43426;43.594;24.334;2023-07-28T06:17:38;101167.09;;;23.12;53.35
57600;BME280;43426;43.594;24.334;2023-07-28T06:20:04;101171.28;;;23.61;49.37
57600;BME280;43426;43.594;24.334;2023-07-28T06:22:29;101171.41;;;23.83;48.06
57600;BME280;43426;43.594;24.334;2023-07-28T06:24:54;101169.53;;;24.18;46.31
57600;BME280;43426;43.594;24.334;2023-07-28T06:27:20;101161.72;;;24.31;46.98
57600;BME280;43426;43.594;24.334;2023-07-28T06:29:45;101154.66;;;24.58;44.60
57600;BME280;43426;43.594;24.334;2023-07-28T06:32:10;101157.31;;;24.70;43.86
57600;BME280;43426;43.594;24.334;2023-07-28T06:34:36;101151.41;;;24.83;43.86
57600;BME280;43426;43.594;24.334;2023-07-28T06:37:01;101155.97;;;24.94;44.65
57600;BME280;43426;43.594;24.334;2023-07-28T06:39:27;101157.38;;;25.19;42.93
57600;BME280;43426;43.594;24.334;2023-07-28T06:41:53;101150.75;;;25.20;44.59
57600;BME280;43426;43.594;24.334;2023-07-28T06:44:18;101146.19;;;25.58;43.13
57600;BME280;43426;43.594;24.334;2023-07-28T06:46:46;101141.91;;;25.78;42.08
57600;BME280;43426;43.594;24.334;2023-07-28T06:49:12;101143.25;;;26.03;41.55
57600;BME280;43426;43.594;24.334;2023-07-28T06:51:38;101135.78;;;26.46;41.78
57600;BME280;43426;43.594;24.334;2023-07-28T06:54:03;101141.28;;;26.83;39.69
57600;BME280;43426;43.594;24.334;2023-07-28T06:56:28;101126.88;;;26.87;39.30
57600;BME280;43426;43.594;24.334;2023-07-28T06:58:54;101140.41;;;26.83;38.70
57600;BME280;43426;43.594;24.334;2023-07-28T07:01:19;101139.03;;;26.80;38.37
57600;BME280;43426;43.594;24.334;2023-07-28T07:03:49;101147.41;;;26.96;38.25
57600;BME280;43426;43.594;24.334;2023-07-28T07:06:15;101143.84;;;27.06;38.33
57600;BME280;43426;43.594;24.334;2023-07-28T07:08:40;101138.69;;;27.45;37.42
57600;BME280;43426;43.594;24.334;2023-07-28T07:11:05;101143.13;;;27.93;37.99
57600;BME280;43426;43.594;24.334;2023-07-28T07:13:31;101147.56;;;28.14;36.07
57600;BME280;43426;43.594;24.334;2023-07-28T07:15:57;101147.56;;;28.09;35.61
57600;BME280;43426;43.594;24.334;2023-07-28T07:18:22;101150.31;;;28.30;33.42
57600;BME280;43426;43.594;24.334;2023-07-28T07:20:47;101147.81;;;28.23;35.01
57600;BME280;43426;43.594;24.334;2023-07-28T07:23:12;101147.78;;;28.44;34.90
57600;BME280;43426;43.594;24.334;2023-07-28T07:25:39;101146.09;;;28.53;34.29
57600;BME280;43426;43.594;24.334;2023-07-28T07:28:04;101147.75;;;28.59;34.07
57600;BME280;43426;43.594;24.334;2023-07-28T07:30:32;101152.28;;;27.98;33.10
57600;BME280;43426;43.594;24.334;2023-07-28T07:32:57;101145.91;;;27.67;34.70
57600;BME280;43426;43.594;24.334;2023-07-28T07:35:23;101150.91;;;27.60;32.95
57600;BME280;43426;43.594;24.334;2023-07-28T07:37:48;101153.84;;;27.27;34.74
57600;BME280;43426;43.594;24.334;2023-07-28T07:40:13;101144.78;;;27.42;35.75
57600;BME280;43426;43.594;24.334;2023-07-28T07:42:40;101152.28;;;27.73;36.14
57600;BME280;43426;43.594;24.334;2023-07-28T07:45:10;101143.97;;;27.88;35.01
57600;BME280;43426;43.594;24.334;2023-07-28T07:47:35;101141.19;;;28.24;34.87
57600;BME280;43426;43.594;24.334;2023-07-28T07:50:00;101148.34;;;28.41;34.11
57600;BME280;43426;43.594;24.334;2023-07-28T07:52:26;101145.81;;;28.60;33.26
57600;BME280;43426;43.594;24.334;2023-07-28T07:54:51;101139.50;;;28.39;33.17
57600;BME280;43426;43.594;24.334;2023-07-28T07:57:16;101144.16;;;28.69;33.95
57600;BME280;43426;43.594;24.334;2023-07-28T07:59:42;101142.56;;;29.08;31.42
57600;BME280;43426;43.594;24.334;2023-07-28T08:02:08;101146.47;;;29.07;32.19
57600;BME280;43426;43.594;24.334;2023-07-28T08:04:33;101157.72;;;28.76;31.70
57600;BME280;43426;43.594;24.334;2023-07-28T08:06:58;101163.81;;;28.83;32.80
57600;BME280;43426;43.594;24.334;2023-07-28T08:09:24;101151.56;;;28.89;33.61
57600;BME280;43426;43.594;24.334;2023-07-28T08:11:49;101151.66;;;29.24;32.56
57600;BME280;43426;43.594;24.334;2023-07-28T08:14:15;101146.31;;;29.37;31.71
57600;BME280;43426;43.594;24.334;2023-07-28T08:16:40;101148.94;;;29.13;31.33
57600;BME280;43426;43.594;24.334;2023-07-28T08:19:08;101151.94;;;29.27;29.96
57600;BME280;43426;43.594;24.334;2023-07-28T08:21:34;101149.00;;;29.48;31.30
57600;BME280;43426;43.594;24.334;2023-07-28T08:24:02;101148.94;;;29.58;31.76
57600;BME280;43426;43.594;24.334;2023-07-28T08:26:28;101146.53;;;29.81;29.86
57600;BME280;43426;43.594;24.334;2023-07-28T08:28:54;101154.66;;;29.77;29.55
57600;BME280;43426;43.594;24.334;2023-07-28T08:31:19;101156.47;;;29.58;28.93
57600;BME280;43426;43.594;24.334;2023-07-28T08:33:44;101146.22;;;29.48;30.75
57600;BME280;43426;43.594;24.334;2023-07-28T08:36:09;101147.19;;;29.22;31.15
57600;BME280;43426;43.594;24.334;2023-07-28T08:38:35;101146.97;;;29.19;29.97
57600;BME280;43426;43.594;24.334;2023-07-28T08:41:00;101147.72;;;29.30;28.13
57600;BME280;43426;43.594;24.334;2023-07-28T08:43:25;101141.94;;;29.26;29.85
57600;BME280;43426;43.594;24.334;2023-07-28T08:45:54;101136.31;;;29.36;30.55
57600;BME280;43426;43.594;24.334;2023-07-28T08:48:20;101146.09;;;29.24;28.36
57600;BME280;43426;43.594;24.334;2023-07-28T08:50:45;101148.94;;;29.13;29.20
57600;BME280;43426;43.594;24.334;2023-07-28T08:53:11;101145.00;;;29.25;29.28
57600;BME280;43426;43.594;24.334;2023-07-28T08:55:36;101144.22;;;29.09;28.51
57600;BME280;43426;43.594;24.334;2023-07-28T08:58:20;101143.09;;;29.15;30.09
57600;BME280;43426;43.594;24.334;2023-07-28T09:00:46;101144.63;;;29.42;30.17
57600;BME280;43426;43.594;24.334;2023-07-28T09:03:14;101141.97;;;29.61;28.98
57600;BME280;43426;43.594;24.334;2023-07-28T09:05:40;101130.13;;;29.84;29.41
57600;BME280;43426;43.594;24.334;2023-07-28T09:08:06;101127.34;;;30.14;28.46
57600;BME280;43426;43.594;24.334;2023-07-28T09:10:40;101131.78;;;30.39;29.09
57600;BME280;43426;43.594;24.334;2023-07-28T09:13:07;101127.03;;;30.69;28.15
57600;BME280;43426;43.594;24.334;2023-07-28T09:15:34;101119.47;;;30.69;28.13
57600;BME280;43426;43.594;24.334;2023-07-28T09:18:00;101116.50;;;30.85;28.39
57600;BME280;43426;43.594;24.334;2023-07-28T09:20:25;101118.41;;;30.89;28.38
57600;BME280;43426;43.594;24.334;2023-07-28T09:22:58;101099.44;;;31.11;28.22
57600;BME280;43426;43.594;24.334;2023-07-28T09:25:23;101107.63;;;31.40;28.58
57600;BME280;43426;43.594;24.334;2023-07-28T09:27:52;101106.25;;;31.75;26.49
57600;BME280;43426;43.594;24.334;2023-07-28T09:30:17;101103.47;;;31.75;28.36
57600;BME280;43426;43.594;24.334;2023-07-28T09:32:46;101101.94;;;31.31;25.52
57600;BME280;43426;43.594;24.334;2023-07-28T09:35:12;101089.09;;;30.73;27.91
57600;BME280;43426;43.594;24.334;2023-07-28T09:37:39;101091.72;;;30.64;26.65
57600;BME280;43426;43.594;24.334;2023-07-28T09:40:06;101081.09;;;30.42;28.67
57600;BME280;43426;43.594;24.334;2023-07-28T09:42:31;101081.28;;;30.51;27.96
57600;BME280;43426;43.594;24.334;2023-07-28T09:44:57;101076.94;;;30.64;26.79
57600;BME280;43426;43.594;24.334;2023-07-28T09:47:23;101079.09;;;30.91;27.66
57600;BME280;43426;43.594;24.334;2023-07-28T09:49:49;101076.75;;;30.98;25.76
57600;BME280;43426;43.594;24.334;2023-07-28T09:52:15;101057.34;;;31.12;27.06
57600;BME280;43426;43.594;24.334;2023-07-28T09:54:43;101067.72;;;31.06;27.93
57600;BME280;43426;43.594;24.334;2023-07-28T11:23:09;100968.34;;;32.83;25.03
57600;BME280;43426;43.594;24.334;2023-07-28T11:28:01;100967.59;;;32.91;25.09
57600;BME280;43426;43.594;24.334;2023-07-28T11:30:27;100964.75;;;32.68;23.34
57600;BME280;43426;43.594;24.334;2023-07-28T11:32:53;100966.63;;;32.36;24.34
57600;BME280;43426;43.594;24.334;2023-07-28T11:35:19;100964.88;;;32.63;26.15
57600;BME280;43426;43.594;24.334;2023-07-28T11:37:46;100963.22;;;32.99;24.91
57600;BME280;43426;43.594;24.334;2023-07-28T11:40:11;100963.81;;;33.72;23.66
57600;BME280;43426;43.594;24.334;2023-07-28T11:42:38;100958.06;;;34.18;22.93
57600;BME280;43426;43.594;24.334;2023-07-28T11:45:04;100953.94;;;34.24;23.11
57600;BME280;43426;43.594;24.334;2023-07-28T11:47:30;100942.22;;;34.04;23.35
57600;BME280;43426;43.594;24.334;2023-07-28T11:49:56;100949.31;;;33.30;22.67
57600;BME280;43426;43.594;24.334;2023-07-28T11:52:23;100943.28;;;33.23;22.85
57600;BME280;43426;43.594;24.334;2023-07-28T11:54:48;100944.16;;;33.23;23.82
57600;BME280;43426;43.594;24.334;2023-07-28T11:57:14;100941.13;;;33.42;23.16
57600;BME280;43426;43.594;24.334;2023-07-28T11:59:39;100938.53;;;33.55;23.54
57600;BME280;43426;43.594;24.334;2023-07-28T12:02:05;100932.94;;;33.95;23.76
57600;BME280;43426;43.594;24.334;2023-07-28T12:04:31;100932.00;;;34.00;22.60
57600;BME280;43426;43.594;24.334;2023-07-28T12:07:15;100933.75;;;33.87;22.29
57600;BME280;43426;43.594;24.334;2023-07-28T12:12:27;100911.91;;;34.24;23.00
57600;BME280;43426;43.594;24.334;2023-07-28T12:14:56;100912.97;;;34.37;20.16
57600;BME280;43426;43.594;24.334;2023-07-28T12:17:24;100907.84;;;34.30;21.64
57600;BME280;43426;43.594;24.334;2023-07-28T12:20:06;100900.38;;;34.08;21.64
57600;BME280;43426;43.594;24.334;2023-07-28T12:22:41;100897.25;;;34.09;21.79
57600;BME280;43426;43.594;24.334;2023-07-28T12:25:06;100896.47;;;34.44;22.30
57600;BME280;43426;43.594;24.334;2023-07-28T12:27:32;100897.94;;;34.76;19.77
57600;BME280;43426;43.594;24.334;2023-07-28T12:30:00;100901.91;;;34.58;21.27
57600;BME280;43426;43.594;24.334;2023-07-28T12:32:26;100890.03;;;34.43;20.29
57600;BME280;43426;43.594;24.334;2023-07-28T12:34:51;100891.34;;;34.28;20.35
57600;BME280;43426;43.594;24.334;2023-07-28T12:37:17;100885.75;;;34.37;21.12
57600;BME280;43426;43.594;24.334;2023-07-28T12:39:43;100886.88;;;34.10;19.53
57600;BME280;43426;43.594;24.334;2023-07-28T12:42:23;100883.06;;;33.97;21.21
57600;BME280;43426;43.594;24.334;2023-07-28T12:44:49;100886.66;;;33.89;20.67
57600;BME280;43426;43.594;24.334;2023-07-28T12:47:14;100874.84;;;34.09;21.14
57600;BME280;43426;43.594;24.334;2023-07-28T12:49:39;100876.97;;;34.21;20.84
57600;BME280;43426;43.594;24.334;2023-07-28T12:52:05;100877.59;;;33.83;19.68
57600;BME280;43426;43.594;24.334;2023-07-28T12:54:34;100876.53;;;33.61;19.48
57600;BME280;43426;43.594;24.334;2023-07-28T12:56:59;100870.78;;;33.75;20.02
57600;BME280;43426;43.594;24.334;2023-07-28T12:59:25;100860.00;;;34.00;20.98
57600;BME280;43426;43.594;24.334;2023-07-28T13:01:50;100855.56;;;34.17;21.27
57600;BME280;43426;43.594;24.334;2023-07-28T13:04:15;100851.78;;;34.21;22.54
57600;BME280;43426;43.594;24.334;2023-07-28T13:06:40;100844.88;;;34.19;22.94
57600;BME280;43426;43.594;24.334;2023-07-28T13:09:06;100858.56;;;34.29;23.36
57600;BME280;43426;43.594;24.334;2023-07-28T13:11:33;100854.59;;;34.56;23.23
57600;BME280;43426;43.594;24.334;2023-07-28T13:13:58;100843.84;;;34.76;22.13
57600;BME280;43426;43.594;24.334;2023-07-28T13:16:23;100837.56;;;34.88;23.40
57600;BME280;43426;43.594;24.334;2023-07-28T13:18:48;100833.41;;;35.03;22.12
57600;BME280;43426;43.594;24.334;2023-07-28T13:21:14;100837.94;;;35.25;20.15
57600;BME280;43426;43.594;24.334;2023-07-28T13:23:41;100838.91;;;35.38;22.81
57600;BME280;43426;43.594;24.334;2023-07-28T13:26:07;100835.56;;;34.97;21.56
57600;BME280;43426;43.594;24.334;2023-07-28T13:28:32;100832.31;;;34.77;20.62
57600;BME280;43426;43.594;24.334;2023-07-28T13:30:58;100826.38;;;34.70;19.75
57600;BME280;43426;43.594;24.334;2023-07-28T13:33:26;100841.38;;;34.66;22.19
57600;BME280;43426;43.594;24.334;2023-07-28T13:35:52;100830.13;;;35.01;23.18
57600;BME280;43426;43.594;24.334;2023-07-28T13:38:17;100825.00;;;35.03;21.11
57600;BME280;43426;43.594;24.334;2023-07-28T13:40:42;100821.41;;;34.85;19.43
57600;BME280;43426;43.594;24.334;2023-07-28T13:43:08;100814.25;;;34.40;19.98
57600;BME280;43426;43.594;24.334;2023-07-28T13:45:33;100819.81;;;33.96;21.54
57600;BME280;43426;43.594;24.334;2023-07-28T13:47:58;100814.38;;;33.91;23.32
57600;BME280;43426;43.594;24.334;2023-07-28T13:50:24;100819.31;;;34.03;20.35
57600;BME280;43426;43.594;24.334;2023-07-28T13:52:49;100814.44;;;33.51;21.65
57600;BME280;43426;43.594;24.334;2023-07-28T13:55:14;100826.13;;;33.44;21.74
57600;BME280;43426;43.594;24.334;2023-07-28T13:57:40;100814.81;;;33.58;22.57
57600;BME280;43426;43.594;24.334;2023-07-28T14:00:05;100812.56;;;33.77;21.51
57600;BME280;43426;43.594;24.334;2023-07-28T14:02:34;100813.34;;;33.60;22.24
57600;BME280;43426;43.594;24.334;2023-07-28T14:04:59;100807.50;;;33.39;21.88
57600;BME280;43426;43.594;24.334;2023-07-28T14:07:25;100809.16;;;33.40;22.96
57600;BME280;43426;43.594;24.334;2023-07-28T14:09:50;100804.75;;;33.57;21.82